sensor_id;sensor_type;location;lat;lon;timestamp;P1;durP1;ratioP1;P2;durP2;ratioP2
51448;SDS011;37520;46.570;14.268;2022-08-21T00:06:41;2.40;;;1.10;;
51448;SDS011;37520;46.570;14.268;2022-08-21T00:16:42;1.88;;;1.00;;
51448;SDS011;37520;46.570;14.268;2022-08-21T00:26:44;2.70;;;1.00;;
51448;SDS011;37520;46.570;14.268;2022-08-21T00:36:46;3.83;;;1.08;;
51448;SDS011;37520;46.570;14.268;2022-08-21T00:46:47;2.30;;;1.08;;
51448;SDS011;37520;46.570;14.268;2022-08-21T00:56:49;2.35;;;1.00;;
51448;SDS011;37520;46.570;14.268;2022-08-21T01:06:55;2.47;;;1.10;;
51448;SDS011;37520;46.570;14.268;2022-08-21T01:16:57;2.53;;;0.85;;
51448;SDS011;37520;46.570;14.268;2022-08-21T01:27:00;2.60;;;0.80;;
51448;SDS011;37520;46.570;14.268;2022-08-21T01:37:02;2.42;;;0.80;;
51448;SDS011;37520;46.570;14.268;2022-08-21T01:47:05;2.55;;;1.00;;
51448;SDS011;37520;46.570;14.268;2022-08-21T01:57:09;2.08;;;0.82;;
51448;SDS011;37520;46.570;14.268;2022-08-21T02:07:12;4.90;;;1.20;;
51448;SDS011;37520;46.570;14.268;2022-08-21T02:17:13;2.15;;;0.90;;
51448;SDS011;37520;46.570;14.268;2022-08-21T02:27:14;2.38;;;1.05;;
51448;SDS011;37520;46.570;14.268;2022-08-21T02:37:16;2.35;;;0.90;;
51448;SDS011;37520;46.570;14.268;2022-08-21T02:47:17;2.97;;;1.10;;
51448;SDS011;37520;46.570;14.268;2022-08-21T02:57:18;2.53;;;1.00;;
51448;SDS011;37520;46.570;14.268;2022-08-21T03:07:20;3.55;;;1.08;;
51448;SDS011;37520;46.570;14.268;2022-08-21T03:17:21;4.22;;;1.25;;
51448;SDS011;37520;46.570;14.268;2022-08-21T03:27:22;3.42;;;1.13;;
51448;SDS011;37520;46.570;14.268;2022-08-21T03:37:25;3.15;;;1.15;;
51448;SDS011;37520;46.570;14.268;2022-08-21T03:47:28;5.13;;;1.27;;
51448;SDS011;37520;46.570;14.268;2022-08-21T03:57:29;2.50;;;1.13;;
51448;SDS011;37520;46.570;14.268;2022-08-21T04:07:30;3.10;;;1.00;;
51448;SDS011;37520;46.570;14.268;2022-08-21T04:17:32;2.28;;;1.20;;
51448;SDS011;37520;46.570;14.268;2022-08-21T04:27:34;2.20;;;1.10;;
51448;SDS011;37520;46.570;14.268;2022-08-21T04:37:35;2.40;;;0.95;;
51448;SDS011;37520;46.570;14.268;2022-08-21T04:47:37;3.33;;;1.00;;
51448;SDS011;37520;46.570;14.268;2022-08-21T04:57:39;3.08;;;1.00;;
51448;SDS011;37520;46.570;14.268;2022-08-21T05:07:41;3.67;;;1.60;;
51448;SDS011;37520;46.570;14.268;2022-08-21T05:17:45;3.63;;;0.90;;
51448;SDS011;37520;46.570;14.268;2022-08-21T05:27:46;3.03;;;1.05;;
51448;SDS011;37520;46.570;14.268;2022-08-21T05:37:47;1.80;;;0.90;;
51448;SDS011;37520;46.570;14.268;2022-08-21T05:47:49;2.67;;;0.90;;
51448;SDS011;37520;46.570;14.268;2022-08-21T05:57:50;2.33;;;1.00;;
51448;SDS011;37520;46.570;14.268;2022-08-21T06:07:51;3.42;;;1.08;;
51448;SDS011;37520;46.570;14.268;2022-08-21T06:17:53;4.95;;;1.00;;
51448;SDS011;37520;46.570;14.268;2022-08-21T06:28:03;4.10;;;1.08;;
51448;SDS011;37520;46.570;14.268;2022-08-21T06:38:06;1.92;;;0.75;;
51448;SDS011;37520;46.570;14.268;2022-08-21T06:48:08;4.30;;;0.88;;
51448;SDS011;37520;46.570;14.268;2022-08-21T06:58:10;5.63;;;1.05;;
51448;SDS011;37520;46.570;14.268;2022-08-21T07:08:13;2.47;;;0.90;;
51448;SDS011;37520;46.570;14.268;2022-08-21T07:18:14;1.92;;;0.70;;
51448;SDS011;37520;46.570;14.268;2022-08-21T07:28:16;2.63;;;0.82;;
51448;SDS011;37520;46.570;14.268;2022-08-21T07:38:17;3.20;;;0.90;;
51448;SDS011;37520;46.570;14.268;2022-08-21T07:48:20;3.67;;;0.88;;
51448;SDS011;37520;46.570;14.268;2022-08-21T07:58:22;1.33;;;0.77;;
51448;SDS011;37520;46.570;14.268;2022-08-21T08:08:23;3.25;;;0.73;;
51448;SDS011;37520;46.570;14.268;2022-08-21T08:18:25;2.17;;;0.90;;
51448;SDS011;37520;46.570;14.268;2022-08-21T08:28:26;2.92;;;0.70;;
51448;SDS011;37520;46.570;14.268;2022-08-21T08:38:28;1.35;;;0.70;;
51448;SDS011;37520;46.570;14.268;2022-08-21T08:58:56;1.40;;;0.70;;
51448;SDS011;37520;46.570;14.268;2022-08-21T09:19:36;1.52;;;0.82;;
51448;SDS011;37520;46.570;14.268;2022-08-21T09:29:47;2.05;;;0.80;;
51448;SDS011;37520;46.570;14.268;2022-08-21T09:39:51;1.38;;;0.60;;
51448;SDS011;37520;46.570;14.268;2022-08-21T09:49:53;1.27;;;0.38;;
51448;SDS011;37520;46.570;14.268;2022-08-21T09:59:54;1.48;;;0.40;;
51448;SDS011;37520;46.570;14.268;2022-08-21T10:10:06;0.73;;;0.35;;
51448;SDS011;37520;46.570;14.268;2022-08-21T10:20:33;1.33;;;0.43;;
51448;SDS011;37520;46.570;14.268;2022-08-21T10:30:46;0.68;;;0.40;;
51448;SDS011;37520;46.570;14.268;2022-08-21T10:51:40;1.90;;;0.60;;
51448;SDS011;37520;46.570;14.268;2022-08-21T11:12:12;1.58;;;0.63;;
51448;SDS011;37520;46.570;14.268;2022-08-21T11:33:05;2.20;;;1.00;;
51448;SDS011;37520;46.570;14.268;2022-08-21T11:43:44;1.75;;;0.90;;
51448;SDS011;37520;46.570;14.268;2022-08-21T11:54:16;2.00;;;0.80;;
51448;SDS011;37520;46.570;14.268;2022-08-21T12:04:35;2.03;;;1.00;;
51448;SDS011;37520;46.570;14.268;2022-08-21T12:14:48;2.78;;;0.82;;
51448;SDS011;37520;46.570;14.268;2022-08-21T12:24:53;2.33;;;0.90;;
51448;SDS011;37520;46.570;14.268;2022-08-21T12:35:14;2.42;;;0.80;;
51448;SDS011;37520;46.570;14.268;2022-08-21T12:45:37;2.40;;;0.82;;
51448;SDS011;37520;46.570;14.268;2022-08-21T12:55:43;3.28;;;0.80;;
51448;SDS011;37520;46.570;14.268;2022-08-21T13:05:44;3.25;;;0.90;;
51448;SDS011;37520;46.570;14.268;2022-08-21T13:15:46;2.65;;;0.90;;
51448;SDS011;37520;46.570;14.268;2022-08-21T13:25:48;2.15;;;0.90;;
51448;SDS011;37520;46.570;14.268;2022-08-21T13:45:57;2.67;;;1.30;;
51448;SDS011;37520;46.570;14.268;2022-08-21T13:55:59;2.35;;;1.00;;
51448;SDS011;37520;46.570;14.268;2022-08-21T14:06:09;1.88;;;0.80;;
51448;SDS011;37520;46.570;14.268;2022-08-21T14:16:16;2.75;;;0.90;;
51448;SDS011;37520;46.570;14.268;2022-08-21T14:26:19;2.05;;;0.98;;
51448;SDS011;37520;46.570;14.268;2022-08-21T14:36:22;3.15;;;1.08;;
51448;SDS011;37520;46.570;14.268;2022-08-21T14:46:24;2.50;;;1.02;;
51448;SDS011;37520;46.570;14.268;2022-08-21T14:56:27;2.38;;;1.15;;
51448;SDS011;37520;46.570;14.268;2022-08-21T15:06:29;3.03;;;1.05;;
51448;SDS011;37520;46.570;14.268;2022-08-21T15:16:30;2.20;;;1.10;;
51448;SDS011;37520;46.570;14.268;2022-08-21T15:26:32;4.60;;;1.20;;
51448;SDS011;37520;46.570;14.268;2022-08-21T15:36:35;2.55;;;1.20;;
51448;SDS011;37520;46.570;14.268;2022-08-21T15:46:36;2.08;;;0.95;;
51448;SDS011;37520;46.570;14.268;2022-08-21T15:56:39;2.60;;;1.20;;
51448;SDS011;37520;46.570;14.268;2022-08-21T16:06:45;2.38;;;1.15;;
51448;SDS011;37520;46.570;14.268;2022-08-21T16:16:46;2.33;;;1.10;;
51448;SDS011;37520;46.570;14.268;2022-08-21T16:26:48;2.53;;;1.00;;
51448;SDS011;37520;46.570;14.268;2022-08-21T16:36:50;2.60;;;1.27;;
51448;SDS011;37520;46.570;14.268;2022-08-21T16:46:51;4.38;;;1.20;;
51448;SDS011;37520;46.570;14.268;2022-08-21T16:56:54;3.92;;;1.35;;
51448;SDS011;37520;46.570;14.268;2022-08-21T17:06:55;3.05;;;1.20;;
51448;SDS011;37520;46.570;14.268;2022-08-21T17:16:56;2.30;;;1.10;;
51448;SDS011;37520;46.570;14.268;2022-08-21T17:27:00;3.78;;;1.13;;
51448;SDS011;37520;46.570;14.268;2022-08-21T17:37:05;4.15;;;1.40;;
51448;SDS011;37520;46.570;14.268;2022-08-21T17:47:07;3.50;;;1.23;;
51448;SDS011;37520;46.570;14.268;2022-08-21T17:57:11;3.92;;;1.20;;
51448;SDS011;37520;46.570;14.268;2022-08-21T18:07:21;2.50;;;1.13;;
51448;SDS011;37520;46.570;14.268;2022-08-21T18:17:23;4.03;;;1.70;;
51448;SDS011;37520;46.570;14.268;2022-08-21T18:27:24;3.70;;;1.60;;
51448;SDS011;37520;46.570;14.268;2022-08-21T18:37:26;3.20;;;1.60;;
51448;SDS011;37520;46.570;14.268;2022-08-21T18:47:30;4.25;;;1.60;;
51448;SDS011;37520;46.570;14.268;2022-08-21T18:57:37;3.22;;;1.63;;
51448;SDS011;37520;46.570;14.268;2022-08-21T19:07:41;5.25;;;1.70;;
51448;SDS011;37520;46.570;14.268;2022-08-21T19:17:43;3.15;;;1.60;;
51448;SDS011;37520;46.570;14.268;2022-08-21T19:27:47;2.80;;;1.42;;
51448;SDS011;37520;46.570;14.268;2022-08-21T19:37:49;2.80;;;1.35;;
51448;SDS011;37520;46.570;14.268;2022-08-21T19:47:51;3.67;;;1.60;;
51448;SDS011;37520;46.570;14.268;2022-08-21T19:57:52;2.55;;;1.42;;
51448;SDS011;37520;46.570;14.268;2022-08-21T20:07:54;2.88;;;1.50;;
51448;SDS011;37520;46.570;14.268;2022-08-21T20:17:56;3.92;;;1.58;;
51448;SDS011;37520;46.570;14.268;2022-08-21T20:27:57;2.83;;;1.30;;
51448;SDS011;37520;46.570;14.268;2022-08-21T20:37:58;2.80;;;1.42;;
51448;SDS011;37520;46.570;14.268;2022-08-21T20:48:04;3.75;;;1.60;;
51448;SDS011;37520;46.570;14.268;2022-08-21T20:58:34;3.67;;;1.60;;
51448;SDS011;37520;46.570;14.268;2022-08-21T21:09:06;3.50;;;1.77;;
51448;SDS011;37520;46.570;14.268;2022-08-21T21:19:13;4.63;;;1.70;;
51448;SDS011;37520;46.570;14.268;2022-08-21T21:29:41;3.42;;;1.60;;
51448;SDS011;37520;46.570;14.268;2022-08-21T22:00:36;4.23;;;1.60;;
51448;SDS011;37520;46.570;14.268;2022-08-21T22:10:51;3.17;;;1.60;;
51448;SDS011;37520;46.570;14.268;2022-08-21T22:21:15;4.60;;;1.60;;
51448;SDS011;37520;46.570;14.268;2022-08-21T22:31:22;4.07;;;1.60;;
51448;SDS011;37520;46.570;14.268;2022-08-21T22:41:29;3.10;;;1.65;;
51448;SDS011;37520;46.570;14.268;2022-08-21T22:51:39;3.15;;;1.70;;
51448;SDS011;37520;46.570;14.268;2022-08-21T23:01:42;3.63;;;1.63;;
51448;SDS011;37520;46.570;14.268;2022-08-21T23:11:45;3.83;;;1.60;;
51448;SDS011;37520;46.570;14.268;2022-08-21T23:21:58;4.30;;;1.92;;
51448;SDS011;37520;46.570;14.268;2022-08-21T23:52:55;3.83;;;1.90;;
